createdAt,value
2023-05-05T00:01:24.298Z,11.32
2023-05-05T00:03:50.851Z,11.30
2023-05-05T00:06:17.400Z,11.76
2023-05-05T00:08:43.879Z,11.32
2023-05-05T00:11:10.351Z,11.52
2023-05-05T00:13:36.846Z,11.48
2023-05-05T00:16:03.965Z,11.48
2023-05-05T00:18:30.422Z,11.30
2023-05-05T00:20:57.035Z,11.27
2023-05-05T00:23:23.478Z,10.96
2023-05-05T00:25:49.971Z,10.88
2023-05-05T00:28:16.445Z,11.00
2023-05-05T00:30:42.936Z,11.25
2023-05-05T00:33:09.581Z,10.93
2023-05-05T00:35:36.071Z,10.73
2023-05-05T00:38:02.995Z,10.63
2023-05-05T00:40:29.573Z,11.37
2023-05-05T00:42:55.991Z,11.45
2023-05-05T00:45:22.661Z,11.19
2023-05-05T00:47:51.566Z,10.95
2023-05-05T00:50:29.062Z,11.01
2023-05-05T00:53:06.740Z,11.22
2023-05-05T00:55:34.505Z,10.84
2023-05-05T00:58:03.035Z,11.00
2023-05-05T01:00:30.913Z,11.17
2023-05-05T01:02:57.514Z,11.24
2023-05-05T01:05:24.789Z,11.25
2023-05-05T01:08:19.492Z,11.24
2023-05-05T01:10:50.285Z,10.78
2023-05-05T01:13:26.623Z,11.16
2023-05-05T01:16:01.611Z,10.95
2023-05-05T01:18:40.580Z,10.33
2023-05-05T01:21:27.064Z,10.49
2023-05-05T01:24:07.942Z,10.69
2023-05-05T01:27:12.049Z,10.79
2023-05-05T01:30:05.688Z,10.72
2023-05-05T01:32:35.762Z,10.81
2023-05-05T01:35:06.329Z,10.67
2023-05-05T01:37:59.107Z,10.87
2023-05-05T01:40:28.289Z,10.60
2023-05-05T01:42:55.575Z,10.70
2023-05-05T01:45:25.365Z,10.63
2023-05-05T01:47:52.789Z,10.51
2023-05-05T01:50:19.596Z,10.51
2023-05-05T01:52:46.743Z,10.44
2023-05-05T01:55:14.897Z,10.49
2023-05-05T01:57:42.565Z,10.96
2023-05-05T02:00:09.870Z,10.54
2023-05-05T02:02:38.922Z,10.20
2023-05-05T02:05:06.677Z,10.21
2023-05-05T02:07:33.874Z,10.60
2023-05-05T02:10:02.778Z,10.47
2023-05-05T02:12:30.312Z,10.36
2023-05-05T02:14:59.249Z,9.80
2023-05-05T02:17:26.403Z,10.29
2023-05-05T02:19:53.233Z,10.26
2023-05-05T02:22:19.779Z,10.24
2023-05-05T02:24:46.340Z,9.85
2023-05-05T02:27:16.463Z,10.47
2023-05-05T02:29:48.016Z,10.55
2023-05-05T02:32:18.638Z,10.00
2023-05-05T02:34:46.455Z,10.17
2023-05-05T02:37:16.030Z,10.21
2023-05-05T02:39:58.658Z,10.17
2023-05-05T02:42:29.035Z,10.25
2023-05-05T02:44:58.829Z,10.01
2023-05-05T02:47:35.667Z,9.95
2023-05-05T02:50:03.411Z,10.01
2023-05-05T02:52:30.070Z,10.10
2023-05-05T02:54:56.571Z,10.15
2023-05-05T02:57:31.153Z,10.11
2023-05-05T03:00:05.985Z,10.16
2023-05-05T03:02:55.888Z,10.23
2023-05-05T03:05:23.952Z,10.10
2023-05-05T03:08:03.403Z,10.32
2023-05-05T03:10:31.459Z,10.47
2023-05-05T03:13:00.125Z,10.44
2023-05-05T03:15:36.693Z,10.67
2023-05-05T03:18:04.076Z,9.85
2023-05-05T03:20:30.720Z,10.28
2023-05-05T03:22:57.263Z,9.83
2023-05-05T03:25:41.443Z,9.66
2023-05-05T03:28:07.934Z,10.27
2023-05-05T03:30:34.404Z,10.27
2023-05-05T03:33:01.093Z,10.31
2023-05-05T03:35:27.971Z,10.19
2023-05-05T03:37:55.687Z,9.87
2023-05-05T03:40:36.380Z,9.86
2023-05-05T03:43:09.872Z,10.03
2023-05-05T03:45:36.339Z,9.73
2023-05-05T03:48:03.195Z,9.91
2023-05-05T03:50:29.668Z,10.06
2023-05-05T03:52:56.252Z,10.40
2023-05-05T03:55:22.792Z,10.44
2023-05-05T03:57:49.254Z,10.03
2023-05-05T04:00:16.059Z,10.30
2023-05-05T04:02:43.671Z,9.95
2023-05-05T04:05:10.297Z,10.16
2023-05-05T04:07:36.754Z,10.20
2023-05-05T04:10:03.313Z,9.98
2023-05-05T04:12:29.885Z,10.19
2023-05-05T04:14:56.367Z,10.11
2023-05-05T04:17:22.823Z,10.05
2023-05-05T04:19:49.392Z,10.28
2023-05-05T04:22:15.907Z,10.08
2023-05-05T04:24:42.374Z,10.19
2023-05-05T04:27:08.827Z,10.39
2023-05-05T04:29:35.313Z,10.17
2023-05-05T04:32:01.760Z,10.00
2023-05-05T04:34:28.283Z,10.11
2023-05-05T04:36:54.745Z,10.39
2023-05-05T04:39:21.595Z,10.22
2023-05-05T04:41:48.054Z,10.45
2023-05-05T04:44:14.542Z,10.24
2023-05-05T04:46:41.479Z,10.23
2023-05-05T04:49:09.190Z,10.28
2023-05-05T04:51:35.661Z,10.39
2023-05-05T04:54:02.176Z,10.52
2023-05-05T04:56:32.010Z,10.61
2023-05-05T04:58:58.615Z,10.14
2023-05-05T05:01:25.263Z,10.52
2023-05-05T05:03:51.780Z,10.53
2023-05-05T05:06:18.335Z,10.67
2023-05-05T05:08:44.829Z,10.80
2023-05-05T05:11:11.280Z,11.00
2023-05-05T05:13:37.795Z,10.47
2023-05-05T05:16:04.419Z,10.81
2023-05-05T05:18:30.894Z,11.41
2023-05-05T05:20:57.314Z,11.24
2023-05-05T05:23:23.852Z,10.87
2023-05-05T05:25:50.753Z,10.67
2023-05-05T05:28:17.210Z,10.76
2023-05-05T05:30:43.644Z,10.91
2023-05-05T05:33:10.790Z,11.15
2023-05-05T05:35:37.433Z,11.12
2023-05-05T05:38:04.006Z,10.72
2023-05-05T05:40:31.517Z,11.02
2023-05-05T05:42:58.078Z,11.11
2023-05-05T05:45:24.547Z,11.24
2023-05-05T05:47:51.111Z,10.84
2023-05-05T05:50:17.719Z,11.34
2023-05-05T05:52:44.187Z,11.71
2023-05-05T05:55:10.694Z,11.73
2023-05-05T05:57:37.144Z,11.33
2023-05-05T06:00:04.013Z,11.44
2023-05-05T06:02:30.662Z,11.35
2023-05-05T06:04:57.180Z,11.97
2023-05-05T06:07:23.677Z,11.89
2023-05-05T06:09:50.613Z,11.94
2023-05-05T06:12:17.118Z,11.65
2023-05-05T06:14:43.729Z,11.35
2023-05-05T06:17:10.270Z,11.68
2023-05-05T06:19:39.760Z,12.17
2023-05-05T06:22:06.362Z,11.34
2023-05-05T06:24:32.931Z,11.80
2023-05-05T06:26:59.431Z,11.94
2023-05-05T06:29:26.299Z,12.27
2023-05-05T06:31:52.830Z,12.20
2023-05-05T06:34:19.399Z,12.38
2023-05-05T06:36:46.041Z,12.13
2023-05-05T06:39:15.298Z,12.55
2023-05-05T06:41:42.471Z,11.70
2023-05-05T06:44:08.950Z,11.51
2023-05-05T06:46:35.574Z,11.92
2023-05-05T06:49:02.106Z,11.90
2023-05-05T06:51:28.553Z,12.09
2023-05-05T06:53:55.019Z,12.42
2023-05-05T06:56:21.594Z,11.37
2023-05-05T06:58:48.147Z,12.09
2023-05-05T07:01:14.663Z,12.47
2023-05-05T07:03:41.209Z,12.46
2023-05-05T07:06:07.838Z,12.58
2023-05-05T07:08:34.347Z,13.09
2023-05-05T07:11:01.201Z,13.00
2023-05-05T07:13:27.747Z,12.66
2023-05-05T07:15:54.273Z,13.37
2023-05-05T07:18:21.146Z,12.84
2023-05-05T07:20:49.154Z,13.19
2023-05-05T07:23:15.607Z,13.48
2023-05-05T07:25:42.198Z,13.33
2023-05-05T07:28:08.741Z,13.77
2023-05-05T07:30:35.259Z,13.70
2023-05-05T07:33:01.813Z,14.02
2023-05-05T07:35:28.541Z,14.25
2023-05-05T07:37:54.985Z,13.98
2023-05-05T07:40:21.668Z,14.02
2023-05-05T07:42:48.208Z,14.84
2023-05-05T07:45:14.665Z,15.43
2023-05-05T07:47:41.191Z,14.85
2023-05-05T07:50:08.612Z,14.84
2023-05-05T07:52:46.820Z,15.26
2023-05-05T07:55:18.163Z,14.34
2023-05-05T07:57:44.628Z,14.65
2023-05-05T08:00:13.288Z,15.28
2023-05-05T08:02:40.325Z,15.34
2023-05-05T08:05:07.520Z,16.30
2023-05-05T08:07:34.320Z,15.64
2023-05-05T08:10:00.828Z,15.31
2023-05-05T08:12:27.299Z,15.47
2023-05-05T08:14:53.782Z,15.18
2023-05-05T08:17:20.336Z,15.11
2023-05-05T08:19:46.881Z,13.69
2023-05-05T08:22:13.398Z,14.17
2023-05-05T08:24:39.830Z,14.43
2023-05-05T08:27:06.356Z,14.33
2023-05-05T08:29:32.814Z,15.01
2023-05-05T08:31:59.303Z,16.01
2023-05-05T08:34:25.841Z,15.33
2023-05-05T08:36:52.288Z,15.59
2023-05-05T08:39:18.771Z,16.02
2023-05-05T08:41:45.271Z,15.79
2023-05-05T08:44:11.965Z,16.29
2023-05-05T08:46:39.170Z,16.45
2023-05-05T08:49:06.195Z,15.47
2023-05-05T08:51:40.415Z,15.67
2023-05-05T08:54:11.615Z,15.67
2023-05-05T08:56:41.878Z,15.89
2023-05-05T08:59:09.142Z,16.04
2023-05-05T09:01:36.305Z,16.35
2023-05-05T09:04:04.390Z,16.25
2023-05-05T09:06:33.771Z,16.07
2023-05-05T09:09:00.987Z,16.83
2023-05-05T09:11:28.105Z,15.77
2023-05-05T09:13:56.125Z,15.57
2023-05-05T09:16:23.076Z,15.76
2023-05-05T09:18:49.650Z,15.68
2023-05-05T09:21:25.109Z,15.09
2023-05-05T09:24:08.173Z,15.69
2023-05-05T09:26:59.186Z,16.17
2023-05-05T09:29:26.578Z,15.57
2023-05-05T09:32:08.984Z,16.67
2023-05-05T09:34:36.206Z,17.35
2023-05-05T09:37:03.435Z,17.17
2023-05-05T09:39:30.043Z,17.20
2023-05-05T09:41:56.557Z,16.72
2023-05-05T09:44:36.729Z,16.30
2023-05-05T09:47:26.112Z,16.24
2023-05-05T09:50:01.901Z,17.08
2023-05-05T09:52:32.083Z,18.16
2023-05-05T09:54:58.576Z,17.03
2023-05-05T09:57:27.294Z,15.97
2023-05-05T09:59:58.927Z,16.35
2023-05-05T10:02:33.441Z,16.38
2023-05-05T10:05:06.665Z,17.13
2023-05-05T10:07:33.242Z,16.77
2023-05-05T10:09:59.689Z,16.57
2023-05-05T10:12:26.976Z,16.59
2023-05-05T10:14:55.892Z,16.66
2023-05-05T10:17:23.350Z,17.22
2023-05-05T10:19:52.699Z,17.65
2023-05-05T10:22:23.442Z,16.75
2023-05-05T10:24:57.912Z,17.34
2023-05-05T10:27:26.079Z,17.15
2023-05-05T10:29:57.808Z,18.18
2023-05-05T10:35:03.249Z,17.37
2023-05-05T10:37:30.928Z,18.37
2023-05-05T10:39:57.827Z,17.25
2023-05-05T10:42:24.371Z,17.59
2023-05-05T10:44:51.410Z,17.15
2023-05-05T10:47:19.300Z,17.02
2023-05-05T10:49:52.943Z,16.81
2023-05-05T10:52:37.319Z,16.80
2023-05-05T10:55:14.357Z,16.90
2023-05-05T10:57:43.092Z,16.42
2023-05-05T11:00:10.920Z,16.22
2023-05-05T11:02:37.550Z,16.26
2023-05-05T11:05:18.086Z,16.63
2023-05-05T11:07:46.491Z,16.77
2023-05-05T11:10:15.032Z,17.89
2023-05-05T11:12:57.874Z,17.28
2023-05-05T11:15:27.930Z,16.81
2023-05-05T11:17:58.499Z,17.14
2023-05-05T11:20:39.436Z,16.09
2023-05-05T11:23:05.928Z,16.75
2023-05-05T11:25:39.018Z,17.26
2023-05-05T11:28:16.338Z,17.80
2023-05-05T11:30:55.184Z,16.91
2023-05-05T11:33:32.852Z,16.71
2023-05-05T11:36:12.283Z,16.26
2023-05-05T11:39:11.869Z,16.27
2023-05-05T11:42:08.022Z,16.98
2023-05-05T11:44:36.221Z,17.16
2023-05-05T11:47:05.893Z,17.94
2023-05-05T11:49:39.389Z,17.89
2023-05-05T11:52:10.463Z,17.39
2023-05-05T11:54:40.469Z,18.15
2023-05-05T11:57:10.302Z,17.33
2023-05-05T11:59:50.230Z,16.74
2023-05-05T12:02:17.898Z,15.83
2023-05-05T12:04:44.534Z,15.27
2023-05-05T12:07:21.822Z,15.13
2023-05-05T12:09:49.083Z,15.79
2023-05-05T12:12:16.508Z,15.30
2023-05-05T12:14:53.253Z,15.13
2023-05-05T12:17:20.809Z,15.34
2023-05-05T12:19:50.346Z,15.93
2023-05-05T12:22:26.945Z,15.65
2023-05-05T12:24:57.732Z,14.70
2023-05-05T12:27:25.212Z,14.55
2023-05-05T12:29:51.927Z,14.71
2023-05-05T12:32:26.079Z,14.60
2023-05-05T12:34:54.411Z,14.71
2023-05-05T12:37:22.070Z,15.45
2023-05-05T12:39:52.283Z,15.08
2023-05-05T12:42:19.204Z,14.62
2023-05-05T12:44:46.717Z,14.93
2023-05-05T12:47:14.162Z,15.03
2023-05-05T12:49:48.670Z,14.59
2023-05-05T12:52:16.279Z,15.04
2023-05-05T12:54:54.835Z,14.44
2023-05-05T12:57:22.374Z,14.63
2023-05-05T12:59:49.414Z,15.56
2023-05-05T13:02:16.515Z,15.21
2023-05-05T13:04:53.534Z,15.23
2023-05-05T13:07:21.720Z,14.47
2023-05-05T13:09:50.963Z,14.78
2023-05-05T13:12:17.976Z,14.44
2023-05-05T13:14:44.734Z,14.65
2023-05-05T13:17:11.839Z,14.22
2023-05-05T13:19:42.785Z,15.04
2023-05-05T13:22:13.178Z,15.29
2023-05-05T13:24:51.003Z,15.64
2023-05-05T13:27:18.601Z,15.01
2023-05-05T13:29:45.127Z,14.45
2023-05-05T13:32:11.713Z,15.03
2023-05-05T13:34:39.256Z,15.28
2023-05-05T13:37:06.129Z,14.72
2023-05-05T13:39:32.761Z,14.51
2023-05-05T13:41:59.274Z,14.65
2023-05-05T13:44:25.749Z,15.17
2023-05-05T13:46:52.388Z,14.95
2023-05-05T13:49:20.028Z,15.33
2023-05-05T13:51:47.182Z,15.65
2023-05-05T13:54:13.962Z,16.05
2023-05-05T13:56:40.474Z,15.68
2023-05-05T13:59:06.964Z,15.85
2023-05-05T14:01:33.487Z,15.05
2023-05-05T14:04:01.449Z,14.81
2023-05-05T14:06:29.393Z,14.86
2023-05-05T14:08:55.940Z,15.11
2023-05-05T14:11:22.926Z,14.30
2023-05-05T14:13:49.746Z,14.49
2023-05-05T14:16:16.618Z,15.19
2023-05-05T14:18:43.188Z,14.58
2023-05-05T14:21:09.785Z,15.18
2023-05-05T14:23:36.307Z,16.02
2023-05-05T14:26:02.870Z,15.37
2023-05-05T14:28:29.325Z,15.38
2023-05-05T14:30:56.408Z,15.24
2023-05-05T14:33:23.014Z,15.05
2023-05-05T14:35:51.671Z,14.99
2023-05-05T14:38:25.356Z,15.16
2023-05-05T14:40:51.908Z,15.18
2023-05-05T14:43:18.412Z,14.42
2023-05-05T14:45:44.956Z,14.79
2023-05-05T14:48:11.541Z,14.50
2023-05-05T14:50:39.925Z,14.40
2023-05-05T14:53:06.422Z,14.30
2023-05-05T14:55:33.043Z,14.27
2023-05-05T14:57:59.549Z,13.95
2023-05-05T15:00:26.900Z,14.80
2023-05-05T15:02:53.623Z,14.16
2023-05-05T15:05:20.274Z,14.63
2023-05-05T15:07:46.781Z,14.56
2023-05-05T15:10:13.218Z,13.91
2023-05-05T15:12:39.711Z,13.84
2023-05-05T15:15:08.667Z,14.09
2023-05-05T15:17:37.471Z,14.60
2023-05-05T15:20:06.213Z,14.93
2023-05-05T15:22:43.196Z,13.79
2023-05-05T15:25:12.481Z,13.72
2023-05-05T15:27:44.060Z,14.11
2023-05-05T15:30:21.808Z,14.08
2023-05-05T15:32:48.337Z,13.65
2023-05-05T15:35:14.831Z,13.94
2023-05-05T15:37:42.873Z,13.31
2023-05-05T15:40:09.886Z,13.58
2023-05-05T15:42:36.579Z,13.27
2023-05-05T15:45:03.449Z,13.33
2023-05-05T15:47:29.924Z,13.74
2023-05-05T15:49:56.574Z,13.38
2023-05-05T15:52:23.038Z,13.47
2023-05-05T15:54:49.543Z,13.14
2023-05-05T15:57:16.459Z,13.31
2023-05-05T15:59:43.012Z,13.18
2023-05-05T16:02:09.482Z,13.21
2023-05-05T16:04:35.951Z,12.91
2023-05-05T16:07:03.383Z,13.07
2023-05-05T16:09:29.902Z,12.73
2023-05-05T16:11:57.028Z,12.71
2023-05-05T16:14:24.102Z,13.02
2023-05-05T16:16:50.693Z,12.85
2023-05-05T16:19:18.134Z,13.17
2023-05-05T16:21:44.874Z,12.75
2023-05-05T16:24:16.030Z,12.98
2023-05-05T16:26:43.554Z,12.84
2023-05-05T16:29:10.532Z,13.07
2023-05-05T16:31:37.084Z,13.09
2023-05-05T16:34:03.872Z,12.31
2023-05-05T16:36:30.357Z,12.52
2023-05-05T16:38:56.855Z,12.28
2023-05-05T16:41:23.802Z,12.41
2023-05-05T16:43:50.433Z,12.62
2023-05-05T16:46:17.022Z,12.36
2023-05-05T16:48:43.649Z,12.57
2023-05-05T16:51:10.140Z,12.31
2023-05-05T16:53:36.638Z,12.07
2023-05-05T16:56:03.324Z,12.19
2023-05-05T16:58:29.810Z,12.32
2023-05-05T17:00:56.258Z,12.67
2023-05-05T17:03:22.791Z,12.33
2023-05-05T17:05:50.470Z,11.82
2023-05-05T17:08:17.254Z,11.71
2023-05-05T17:10:45.328Z,11.99
2023-05-05T17:13:12.957Z,12.08
2023-05-05T17:15:39.596Z,12.15
2023-05-05T17:18:06.804Z,11.84
2023-05-05T17:20:34.413Z,11.70
2023-05-05T17:23:02.204Z,11.91
2023-05-05T17:25:28.812Z,11.62
2023-05-05T17:27:56.182Z,11.34
2023-05-05T17:30:23.410Z,11.30
2023-05-05T17:32:50.040Z,11.22
2023-05-05T17:35:16.650Z,10.91
2023-05-05T17:37:43.197Z,10.57
2023-05-05T17:40:09.904Z,10.08
2023-05-05T17:42:36.432Z,10.23
2023-05-05T17:45:03.362Z,9.79
2023-05-05T17:47:29.999Z,10.16
2023-05-05T17:49:56.914Z,10.26
2023-05-05T17:52:23.850Z,10.15
2023-05-05T17:54:50.702Z,10.26
2023-05-05T17:57:18.373Z,9.85
2023-05-05T17:59:45.078Z,10.24
2023-05-05T18:02:11.560Z,10.44
2023-05-05T18:04:38.030Z,10.09
2023-05-05T18:07:04.880Z,10.35
2023-05-05T18:09:31.350Z,10.03
2023-05-05T18:11:57.822Z,9.83
2023-05-05T18:14:24.598Z,10.04
2023-05-05T18:16:52.403Z,10.19
2023-05-05T18:19:23.127Z,9.96
2023-05-05T18:21:54.464Z,9.73
2023-05-05T18:24:20.969Z,9.83
2023-05-05T18:26:50.196Z,9.99
2023-05-05T18:29:17.881Z,10.22
2023-05-05T18:31:46.094Z,10.21
2023-05-05T18:34:12.594Z,9.91
2023-05-05T18:36:39.267Z,10.05
2023-05-05T18:39:05.772Z,10.00
2023-05-05T18:41:35.711Z,9.88
2023-05-05T18:44:04.611Z,10.39
2023-05-05T18:46:31.266Z,9.63
2023-05-05T18:48:57.823Z,9.90
2023-05-05T18:51:24.954Z,9.38
2023-05-05T18:53:51.424Z,9.37
2023-05-05T18:56:18.569Z,9.86
2023-05-05T18:58:45.044Z,9.86
2023-05-05T19:01:11.524Z,9.90
2023-05-05T19:03:38.124Z,9.73
2023-05-05T19:06:07.850Z,10.18
2023-05-05T19:08:34.462Z,9.27
2023-05-05T19:11:00.974Z,9.82
2023-05-05T19:13:28.171Z,9.73
2023-05-05T19:15:57.071Z,9.10
2023-05-05T19:18:24.216Z,9.40
2023-05-05T19:20:50.734Z,9.40
2023-05-05T19:23:17.193Z,9.32
2023-05-05T19:25:43.896Z,9.64
2023-05-05T19:28:13.670Z,9.73
2023-05-05T19:30:40.117Z,9.27
2023-05-05T19:33:06.703Z,9.15
2023-05-05T19:35:33.220Z,9.70
2023-05-05T19:37:59.785Z,9.11
2023-05-05T19:40:26.252Z,9.33
2023-05-05T19:42:52.811Z,9.34
2023-05-05T19:45:19.345Z,8.81
2023-05-05T19:47:46.235Z,9.56
2023-05-05T19:50:12.841Z,9.33
2023-05-05T19:52:41.385Z,9.49
2023-05-05T19:55:10.351Z,9.06
2023-05-05T19:57:36.937Z,9.91
2023-05-05T20:00:03.761Z,9.73
2023-05-05T20:02:30.525Z,9.24
2023-05-05T20:04:57.984Z,9.06
2023-05-05T20:07:24.470Z,9.62
2023-05-05T20:09:50.942Z,8.77
2023-05-05T20:12:19.532Z,9.36
2023-05-05T20:14:46.074Z,9.07
2023-05-05T20:17:38.952Z,8.98
2023-05-05T20:20:06.153Z,8.96
2023-05-05T20:22:32.731Z,8.84
2023-05-05T20:24:59.256Z,9.06
2023-05-05T20:27:26.726Z,9.21
2023-05-05T20:29:55.094Z,8.99
2023-05-05T20:32:21.594Z,9.02
2023-05-05T20:34:48.199Z,9.24
2023-05-05T20:37:14.721Z,8.78
2023-05-05T20:39:42.312Z,8.81
2023-05-05T20:42:08.745Z,8.96
2023-05-05T20:45:00.860Z,9.25
2023-05-05T20:47:27.345Z,8.89
2023-05-05T20:49:54.279Z,8.70
2023-05-05T20:52:20.852Z,8.59
2023-05-05T20:54:47.337Z,8.81
2023-05-05T20:57:13.797Z,8.77
2023-05-05T20:59:40.266Z,8.98
2023-05-05T21:02:07.420Z,9.09
2023-05-05T21:04:33.954Z,8.71
2023-05-05T21:07:00.594Z,8.87
2023-05-05T21:09:52.311Z,8.54
2023-05-05T21:12:21.785Z,8.66
2023-05-05T21:14:48.233Z,8.38
2023-05-05T21:17:14.678Z,8.34
2023-05-05T21:19:41.242Z,7.94
2023-05-05T21:22:09.672Z,8.21
2023-05-05T21:24:38.266Z,8.50
2023-05-05T21:27:04.797Z,8.20
2023-05-05T21:29:37.415Z,8.86
2023-05-05T21:32:05.127Z,8.65
2023-05-05T21:34:31.622Z,8.52
2023-05-05T21:36:58.155Z,8.51
2023-05-05T21:39:24.828Z,8.58
2023-05-05T21:41:51.612Z,8.79
2023-05-05T21:44:18.069Z,8.34
2023-05-05T21:46:44.690Z,8.41
2023-05-05T21:49:15.606Z,8.01
2023-05-05T21:51:42.662Z,8.27
2023-05-05T21:54:09.255Z,8.97
2023-05-05T21:56:36.915Z,8.68
2023-05-05T21:59:04.745Z,8.66
2023-05-05T22:01:31.852Z,8.85
2023-05-05T22:03:58.761Z,8.36
2023-05-05T22:06:25.358Z,8.55
2023-05-05T22:08:51.813Z,8.91
2023-05-05T22:11:18.807Z,8.43
2023-05-05T22:13:46.358Z,8.16
2023-05-05T22:16:12.905Z,8.52
2023-05-05T22:18:39.403Z,8.45
2023-05-05T22:21:06.133Z,8.46
2023-05-05T22:23:32.653Z,8.80
2023-05-05T22:25:59.177Z,8.34
2023-05-05T22:28:27.017Z,8.36
2023-05-05T22:30:54.024Z,8.15
2023-05-05T22:33:20.509Z,8.02
2023-05-05T22:35:47.060Z,8.36
2023-05-05T22:38:13.606Z,8.01
2023-05-05T22:40:40.195Z,8.46
2023-05-05T22:43:06.737Z,8.20
2023-05-05T22:45:33.286Z,8.28
2023-05-05T22:47:59.850Z,8.44
2023-05-05T22:50:26.354Z,8.16
2023-05-05T22:52:52.830Z,8.38
2023-05-05T22:55:20.308Z,8.24
2023-05-05T22:57:47.383Z,8.57
2023-05-05T23:00:14.604Z,8.54
2023-05-05T23:02:41.595Z,8.71
2023-05-05T23:05:08.681Z,8.58
2023-05-05T23:07:35.402Z,8.36
2023-05-05T23:10:01.918Z,8.12
2023-05-05T23:12:28.538Z,8.72
2023-05-05T23:14:55.038Z,8.61
2023-05-05T23:17:21.523Z,8.62
2023-05-05T23:19:48.501Z,8.82
2023-05-05T23:22:15.085Z,8.29
2023-05-05T23:24:41.729Z,8.43
2023-05-05T23:27:08.216Z,8.34
2023-05-05T23:29:37.671Z,8.38
2023-05-05T23:32:04.884Z,8.58
2023-05-05T23:34:41.305Z,8.48
2023-05-05T23:37:08.592Z,8.06
2023-05-05T23:39:35.247Z,8.39
2023-05-05T23:42:01.814Z,8.55
2023-05-05T23:44:28.418Z,8.57
2023-05-05T23:46:54.951Z,8.80
2023-05-05T23:49:21.523Z,8.73
2023-05-05T23:51:48.029Z,8.86
2023-05-05T23:54:14.522Z,8.13
2023-05-05T23:56:41.178Z,8.42
2023-05-05T23:59:07.869Z,8.61
